PIKE41 EGVA-KDYS
Flight info
| Callsign | PIKE41 |
|---|---|
| Flight time | N/A |
| Altitude | 32000 |
| Route | KISWO/N0432F310 DCT AVTIC/N0429F320 DCT MONTY UN864 BILVO UP6 TUPEM DCT AMLAD DCT SUNOT/M074F330 NATC HOIST/N0425F340 N754B OMTOL/N0426F360 N736B MT J545 YVO Q923 HOCKE Q824 FNT J547 KUBBS/N0422F380 J547 OBK J101 STL J8 SGF J98 TUL J78 IRW J23 BATIK |
| Aircraft | B1/H-SDE1E2FGHIJ5RTUWXY/LB1D1 |
Departure
| Time | 2026-04-25 12:42 |
|---|---|
| Airport | RAF Fairford (EGVA) |
Arrival
| Time | N/A |
|---|---|
| Airport | Dyess Air Force Base (KDYS) |
| Time | Latitude | Longitude | Altitude | Speed | Heading |
|---|---|---|---|---|---|
| 2026-04-25 12:25 | 51.67930 | -1.79940 | 289 ft | 0 kts | 175° |
| 2026-04-25 12:36 | 51.67915 | -1.79944 | 291 ft | 6 kts | 194° |
| 2026-04-25 12:37 | 51.67890 | -1.80007 | 291 ft | 11 kts | 253° |
| 2026-04-25 12:37 | 51.67853 | -1.80164 | 296 ft | 19 kts | 235° |
| 2026-04-25 12:37 | 51.67788 | -1.80380 | 292 ft | 22 kts | 292° |
| 2026-04-25 12:37 | 51.67903 | -1.80462 | 292 ft | 17 kts | 357° |
| 2026-04-25 12:38 | 51.68005 | -1.80483 | 294 ft | 12 kts | 334° |
| 2026-04-25 12:38 | 51.68033 | -1.80576 | 295 ft | 10 kts | 281° |
| 2026-04-25 12:38 | 51.68063 | -1.80699 | 296 ft | 20 kts | 298° |
| 2026-04-25 12:38 | 51.68125 | -1.80897 | 297 ft | 11 kts | 296° |
| 2026-04-25 12:39 | 51.68154 | -1.80994 | 299 ft | 8 kts | 297° |
| 2026-04-25 12:39 | 51.68174 | -1.81057 | 300 ft | 5 kts | 297° |
| 2026-04-25 12:39 | 51.68186 | -1.81097 | 297 ft | 5 kts | 296° |
| 2026-04-25 12:39 | 51.68219 | -1.81162 | 297 ft | 7 kts | 332° |
| 2026-04-25 12:40 | 51.68259 | -1.81183 | 299 ft | 9 kts | 355° |
| 2026-04-25 12:40 | 51.68300 | -1.81162 | 303 ft | 6 kts | 50° |
| 2026-04-25 12:40 | 51.68305 | -1.81136 | 300 ft | 0 kts | 87° |
| 2026-04-25 12:41 | 51.68311 | -1.80950 | 295 ft | 52 kts | 88° |
| 2026-04-25 12:41 | 51.68330 | -1.79961 | 292 ft | 123 kts | 88° |
| 2026-04-25 12:42 | 51.68368 | -1.78249 | 307 ft | 180 kts | 87° |
| 2026-04-25 12:42 | 51.68391 | -1.77549 | 412 ft | 190 kts | 87° |
| 2026-04-25 12:42 | 51.68522 | -1.73739 | 1354 ft | 224 kts | 86° |
| 2026-04-25 12:42 | 51.68648 | -1.70956 | 1803 ft | 267 kts | 85° |
| 2026-04-25 12:43 | 51.69052 | -1.67944 | 2796 ft | 284 kts | 64° |
| 2026-04-25 12:43 | 51.70249 | -1.65327 | 3744 ft | 305 kts | 33° |
| 2026-04-25 12:43 | 51.74118 | -1.66174 | 6427 ft | 314 kts | 304° |
| 2026-04-25 12:44 | 51.74980 | -1.69445 | 7753 ft | 324 kts | 287° |
| 2026-04-25 12:44 | 51.75640 | -1.73090 | 8601 ft | 354 kts | 286° |
| 2026-04-25 12:44 | 51.77136 | -1.81507 | 9301 ft | 424 kts | 286° |
| 2026-04-25 12:45 | 51.78057 | -1.86117 | 9561 ft | 449 kts | 294° |
| 2026-04-25 12:45 | 51.79740 | -1.90653 | 9824 ft | 494 kts | 306° |
| 2026-04-25 12:45 | 51.84638 | -1.99979 | 10349 ft | 589 kts | 312° |
| 2026-04-25 12:46 | 51.87461 | -2.04966 | 10605 ft | 611 kts | 312° |
| 2026-04-25 12:46 | 51.90537 | -2.09679 | 10839 ft | 602 kts | 320° |
| 2026-04-25 12:46 | 51.93668 | -2.14078 | 11082 ft | 594 kts | 317° |
| 2026-04-25 12:46 | 51.96697 | -2.18595 | 11341 ft | 589 kts | 317° |
| 2026-04-25 12:47 | 51.99746 | -2.23011 | 11599 ft | 586 kts | 317° |
| 2026-04-25 12:47 | 52.02780 | -2.27394 | 11855 ft | 581 kts | 318° |
| 2026-04-25 12:47 | 52.05810 | -2.31735 | 12122 ft | 579 kts | 318° |
| 2026-04-25 12:47 | 52.08830 | -2.36081 | 12386 ft | 578 kts | 318° |
| 2026-04-25 12:48 | 52.11835 | -2.40415 | 12656 ft | 578 kts | 317° |
| 2026-04-25 12:48 | 52.14841 | -2.44757 | 12910 ft | 578 kts | 318° |
| 2026-04-25 12:48 | 52.17851 | -2.49092 | 13173 ft | 578 kts | 317° |
| 2026-04-25 12:48 | 52.20873 | -2.53433 | 13446 ft | 578 kts | 318° |
| 2026-04-25 12:49 | 52.23888 | -2.57769 | 13714 ft | 578 kts | 317° |
| 2026-04-25 12:49 | 52.26904 | -2.62106 | 13982 ft | 578 kts | 318° |
| 2026-04-25 12:49 | 52.29915 | -2.66452 | 14229 ft | 577 kts | 317° |
| 2026-04-25 12:49 | 52.32924 | -2.70801 | 14468 ft | 577 kts | 317° |
| 2026-04-25 12:50 | 52.35887 | -2.75102 | 14700 ft | 577 kts | 317° |
| 2026-04-25 12:50 | 52.38883 | -2.79472 | 14943 ft | 577 kts | 317° |
| 2026-04-25 12:50 | 52.41885 | -2.83850 | 15186 ft | 576 kts | 317° |
| 2026-04-25 12:50 | 52.44872 | -2.88230 | 15431 ft | 576 kts | 317° |
| 2026-04-25 12:51 | 52.47863 | -2.92602 | 15691 ft | 576 kts | 317° |
| 2026-04-25 12:51 | 52.50845 | -2.96976 | 15938 ft | 576 kts | 317° |
| 2026-04-25 12:51 | 52.53835 | -3.01355 | 16198 ft | 576 kts | 317° |
| 2026-04-25 12:51 | 52.56815 | -3.05740 | 16457 ft | 576 kts | 317° |
| 2026-04-25 12:52 | 52.58835 | -3.08709 | 16631 ft | 576 kts | 317° |
| 2026-04-25 12:52 | 52.61960 | -3.12810 | 16890 ft | 576 kts | 329° |
| 2026-04-25 12:52 | 52.65712 | -3.14773 | 17173 ft | 580 kts | 355° |
| 2026-04-25 12:52 | 52.69713 | -3.14036 | 17484 ft | 581 kts | 12° |
| 2026-04-25 12:53 | 52.73702 | -3.13233 | 17755 ft | 578 kts | 354° |
| 2026-04-25 12:53 | 52.77637 | -3.14501 | 18049 ft | 576 kts | 347° |
| 2026-04-25 12:53 | 52.81604 | -3.15447 | 18330 ft | 578 kts | 352° |
| 2026-04-25 12:53 | 52.85582 | -3.16475 | 18588 ft | 579 kts | 350° |
| 2026-04-25 12:54 | 52.89583 | -3.17244 | 18822 ft | 580 kts | 357° |
| 2026-04-25 12:54 | 52.93617 | -3.16936 | 19061 ft | 581 kts | 2° |
| 2026-04-25 12:54 | 52.97658 | -3.16723 | 19304 ft | 581 kts | 1° |
| 2026-04-25 12:54 | 53.01700 | -3.16405 | 19554 ft | 581 kts | 1° |
| 2026-04-25 12:55 | 53.05742 | -3.16125 | 19792 ft | 582 kts | 2° |
| 2026-04-25 12:55 | 53.08424 | -3.15904 | 19953 ft | 582 kts | 2° |
| 2026-04-25 12:55 | 53.13843 | -3.15479 | 20275 ft | 582 kts | 1° |
| 2026-04-25 12:55 | 53.17892 | -3.15151 | 20523 ft | 582 kts | 2° |
| 2026-04-25 12:56 | 53.21940 | -3.14821 | 20777 ft | 582 kts | 2° |
| 2026-04-25 12:56 | 53.25993 | -3.14489 | 21007 ft | 583 kts | 2° |
| 2026-04-25 12:56 | 53.30001 | -3.14169 | 21117 ft | 586 kts | 1° |
| 2026-04-25 12:56 | 53.34084 | -3.13843 | 21168 ft | 589 kts | 1° |
| 2026-04-25 12:57 | 53.38159 | -3.13631 | 21754 ft | 580 kts | 357° |
| 2026-04-25 12:57 | 53.42146 | -3.14196 | 22552 ft | 569 kts | 354° |
| 2026-04-25 12:57 | 53.46060 | -3.14632 | 23366 ft | 560 kts | 354° |
| 2026-04-25 12:57 | 53.49922 | -3.15171 | 24128 ft | 553 kts | 354° |
| 2026-04-25 12:58 | 53.53739 | -3.15703 | 24829 ft | 547 kts | 353° |
| 2026-04-25 12:58 | 53.57514 | -3.16250 | 25548 ft | 542 kts | 353° |
| 2026-04-25 12:58 | 53.61251 | -3.16788 | 26289 ft | 536 kts | 353° |
| 2026-04-25 12:58 | 53.64993 | -3.17331 | 27054 ft | 546 kts | 353° |
| 2026-04-25 12:59 | 53.68775 | -3.17894 | 27830 ft | 557 kts | 353° |
| 2026-04-25 12:59 | 53.72627 | -3.19170 | 28662 ft | 561 kts | 335° |
| 2026-04-25 12:59 | 53.75757 | -3.22864 | 29574 ft | 560 kts | 309° |
| 2026-04-25 12:59 | 53.77780 | -3.28485 | 30508 ft | 564 kts | 294° |
| 2026-04-25 13:00 | 53.79395 | -3.34568 | 31244 ft | 573 kts | 292° |
| 2026-04-25 13:00 | 53.80542 | -3.38721 | 31655 ft | 581 kts | 297° |
| 2026-04-25 13:00 | 53.83405 | -3.46577 | 32024 ft | 604 kts | 303° |
| 2026-04-25 13:00 | 53.85849 | -3.52516 | 32135 ft | 621 kts | 302° |
| 2026-04-25 13:01 | 53.88339 | -3.58624 | 32181 ft | 638 kts | 303° |
| 2026-04-25 13:01 | 53.90923 | -3.64877 | 32198 ft | 654 kts | 303° |
| 2026-04-25 13:01 | 53.93573 | -3.71246 | 32212 ft | 667 kts | 303° |
| 2026-04-25 13:01 | 53.96271 | -3.77739 | 32213 ft | 678 kts | 303° |
| 2026-04-25 13:02 | 54.01776 | -3.91034 | 32210 ft | 695 kts | 303° |
| 2026-04-25 13:02 | 54.07384 | -4.04582 | 32207 ft | 706 kts | 303° |
| 2026-04-25 13:03 | 54.13037 | -4.18233 | 32207 ft | 713 kts | 303° |
| 2026-04-25 13:03 | 54.18769 | -4.32125 | 32210 ft | 718 kts | 304° |
| 2026-04-25 13:04 | 54.24476 | -4.46161 | 32205 ft | 721 kts | 303° |
| 2026-04-25 13:04 | 54.30205 | -4.60308 | 32209 ft | 723 kts | 303° |
| 2026-04-25 13:05 | 54.35941 | -4.74492 | 32205 ft | 724 kts | 303° |
| 2026-04-25 13:05 | 54.41673 | -4.88742 | 32231 ft | 725 kts | 303° |
| 2026-04-25 13:06 | 54.44471 | -4.95746 | 33023 ft | 714 kts | 303° |
| 2026-04-25 13:06 | 54.47296 | -5.02838 | 33848 ft | 705 kts | 303° |
| 2026-04-25 13:06 | 54.50012 | -5.09674 | 34554 ft | 699 kts | 303° |
| 2026-04-25 13:06 | 54.52745 | -5.16582 | 34896 ft | 698 kts | 303° |
| 2026-04-25 13:07 | 54.55480 | -5.23500 | 35064 ft | 700 kts | 303° |
| 2026-04-25 13:07 | 54.58219 | -5.30452 | 35141 ft | 703 kts | 303° |
| 2026-04-25 13:07 | 54.63732 | -5.44487 | 35203 ft | 709 kts | 303° |
| 2026-04-25 13:08 | 54.69262 | -5.58655 | 35196 ft | 713 kts | 303° |
| 2026-04-25 13:08 | 54.74805 | -5.72944 | 35189 ft | 716 kts | 302° |
| 2026-04-25 13:09 | 54.80345 | -5.87309 | 35194 ft | 718 kts | 302° |
| 2026-04-25 13:09 | 54.85887 | -6.01752 | 35209 ft | 720 kts | 302° |
| 2026-04-25 13:10 | 54.91398 | -6.16200 | 35201 ft | 723 kts | 302° |
| 2026-04-25 13:10 | 54.96933 | -6.30802 | 35201 ft | 725 kts | 302° |
| 2026-04-25 13:11 | 55.02477 | -6.45519 | 35197 ft | 726 kts | 302° |
| 2026-04-25 13:11 | 55.08009 | -6.60286 | 35200 ft | 727 kts | 302° |
| 2026-04-25 13:12 | 55.13530 | -6.75109 | 35189 ft | 728 kts | 302° |
| 2026-04-25 13:12 | 55.18112 | -6.87480 | 35183 ft | 729 kts | 302° |
| 2026-04-25 13:13 | 55.24504 | -7.04854 | 35185 ft | 730 kts | 302° |
| 2026-04-25 13:13 | 55.29990 | -7.19859 | 35193 ft | 730 kts | 301° |
| 2026-04-25 13:14 | 55.35456 | -7.34893 | 35180 ft | 732 kts | 301° |
| 2026-04-25 13:14 | 55.40931 | -7.50048 | 35178 ft | 733 kts | 301° |
| 2026-04-25 13:15 | 55.46381 | -7.65236 | 35177 ft | 734 kts | 301° |
| 2026-04-25 13:15 | 55.51824 | -7.80498 | 35177 ft | 734 kts | 301° |
| 2026-04-25 13:16 | 55.57246 | -7.95792 | 35185 ft | 735 kts | 301° |
| 2026-04-25 13:16 | 55.62661 | -8.11156 | 35183 ft | 736 kts | 301° |
| 2026-04-25 13:17 | 55.68027 | -8.26486 | 35184 ft | 737 kts | 300° |
| 2026-04-25 13:17 | 55.73412 | -8.41972 | 35189 ft | 738 kts | 300° |
| 2026-04-25 13:18 | 55.78781 | -8.57506 | 35194 ft | 737 kts | 300° |
| 2026-04-25 13:18 | 55.84126 | -8.73067 | 35188 ft | 737 kts | 300° |
| 2026-04-25 13:19 | 55.89448 | -8.88660 | 35183 ft | 736 kts | 300° |
| 2026-04-25 13:19 | 55.93857 | -9.01658 | 35182 ft | 736 kts | 300° |
| 2026-04-25 13:20 | 56.00007 | -9.19915 | 35185 ft | 736 kts | 300° |
| 2026-04-25 13:20 | 56.05274 | -9.35648 | 35182 ft | 737 kts | 300° |
| 2026-04-25 13:21 | 56.10520 | -9.51424 | 35181 ft | 738 kts | 299° |
| 2026-04-25 13:21 | 56.15720 | -9.67169 | 35179 ft | 738 kts | 299° |
| 2026-04-25 13:22 | 56.20932 | -9.83057 | 35189 ft | 738 kts | 299° |
| 2026-04-25 13:23 | 56.27742 | -10.07747 | 35194 ft | 733 kts | 283° |
| 2026-04-25 13:23 | 56.30705 | -10.25353 | 35180 ft | 734 kts | 285° |
| 2026-04-25 13:24 | 56.33686 | -10.42973 | 35178 ft | 735 kts | 285° |
| 2026-04-25 13:24 | 56.36621 | -10.60625 | 35166 ft | 735 kts | 285° |
| 2026-04-25 13:25 | 56.39507 | -10.78312 | 35168 ft | 735 kts | 284° |
| 2026-04-25 13:25 | 56.42372 | -10.96069 | 35161 ft | 737 kts | 284° |
| 2026-04-25 13:26 | 56.45210 | -11.13747 | 35173 ft | 737 kts | 284° |
| 2026-04-25 13:26 | 56.48051 | -11.31599 | 35167 ft | 738 kts | 284° |
| 2026-04-25 13:27 | 56.50870 | -11.49545 | 35155 ft | 740 kts | 284° |
| 2026-04-25 13:27 | 56.53639 | -11.67394 | 35172 ft | 733 kts | 284° |
| 2026-04-25 13:28 | 56.56367 | -11.85147 | 35156 ft | 729 kts | 283° |
| 2026-04-25 13:28 | 56.59066 | -12.02885 | 35155 ft | 727 kts | 283° |
| 2026-04-25 13:29 | 56.61729 | -12.20569 | 35150 ft | 726 kts | 283° |
| 2026-04-25 13:29 | 56.64347 | -12.38170 | 35150 ft | 725 kts | 283° |
| 2026-04-25 13:30 | 56.68244 | -12.64712 | 35148 ft | 724 kts | 283° |
| 2026-04-25 13:31 | 56.72087 | -12.91332 | 35167 ft | 724 kts | 283° |
| 2026-04-25 13:31 | 56.74608 | -13.09042 | 35147 ft | 725 kts | 282° |
| 2026-04-25 13:32 | 56.77117 | -13.26880 | 35131 ft | 725 kts | 282° |
| 2026-04-25 13:32 | 56.79599 | -13.44718 | 35128 ft | 726 kts | 282° |
| 2026-04-25 13:33 | 56.82044 | -13.62492 | 35138 ft | 726 kts | 282° |
| 2026-04-25 13:33 | 56.84478 | -13.80388 | 35126 ft | 726 kts | 282° |
| 2026-04-25 13:34 | 56.86881 | -13.98287 | 35127 ft | 726 kts | 282° |
| 2026-04-25 13:34 | 56.89265 | -14.16267 | 35121 ft | 727 kts | 282° |
| 2026-04-25 13:35 | 56.91628 | -14.34287 | 35120 ft | 729 kts | 281° |
| 2026-04-25 13:35 | 56.93972 | -14.52378 | 35114 ft | 730 kts | 281° |
| 2026-04-25 13:36 | 56.96268 | -14.70311 | 35104 ft | 712 kts | 281° |
| 2026-04-25 13:36 | 56.97378 | -14.79090 | 35094 ft | 687 kts | 281° |
| 2026-04-25 13:36 | 56.98426 | -14.87402 | 35130 ft | 666 kts | 281° |
| 2026-04-25 13:36 | 56.99465 | -14.95553 | 35103 ft | 647 kts | 282° |
| 2026-04-25 13:37 | 57.00888 | -15.03258 | 35118 ft | 630 kts | 292° |
| 2026-04-25 13:37 | 57.02531 | -15.10571 | 35116 ft | 610 kts | 289° |
| 2026-04-25 13:37 | 57.04080 | -15.17705 | 35090 ft | 593 kts | 290° |
| 2026-04-25 13:37 | 57.05599 | -15.24637 | 35085 ft | 575 kts | 290° |
| 2026-04-25 13:38 | 57.07071 | -15.31322 | 35090 ft | 553 kts | 290° |
| 2026-04-25 13:38 | 57.08488 | -15.37754 | 35087 ft | 526 kts | 290° |
| 2026-04-25 13:38 | 57.09818 | -15.43798 | 35081 ft | 497 kts | 290° |
| 2026-04-25 13:38 | 57.11066 | -15.49519 | 35076 ft | 486 kts | 289° |
| 2026-04-25 13:39 | 57.12323 | -15.55323 | 35104 ft | 489 kts | 289° |
| 2026-04-25 13:39 | 57.14877 | -15.67060 | 35099 ft | 499 kts | 290° |
| 2026-04-25 13:40 | 57.17494 | -15.78994 | 35084 ft | 505 kts | 290° |
| 2026-04-25 13:40 | 57.19681 | -15.89001 | 35075 ft | 507 kts | 290° |
| 2026-04-25 13:41 | 57.22300 | -16.01144 | 35077 ft | 511 kts | 290° |
| 2026-04-25 13:41 | 57.24918 | -16.13408 | 35076 ft | 514 kts | 289° |
| 2026-04-25 13:42 | 57.27544 | -16.25753 | 35077 ft | 517 kts | 289° |
| 2026-04-25 13:42 | 57.30176 | -16.38153 | 35084 ft | 519 kts | 289° |
| 2026-04-25 13:43 | 57.32790 | -16.50544 | 35077 ft | 521 kts | 289° |
| 2026-04-25 13:43 | 57.35422 | -16.63129 | 35074 ft | 526 kts | 289° |
| 2026-04-25 13:44 | 57.38068 | -16.75874 | 35067 ft | 532 kts | 289° |
| 2026-04-25 13:44 | 57.40733 | -16.88767 | 35068 ft | 539 kts | 289° |
| 2026-04-25 13:45 | 57.43419 | -17.01837 | 35083 ft | 546 kts | 289° |